Time;durP1;ratioP1;P1;durP2;ratioP2;P2;SDS_P1;SDS_P2;PMS_P1;PMS_P2;Temp;Humidity;BMP_temperature;BMP_pressure;BME280_temperature;BME280_humidity;BME280_pressure;Samples;Min_cycle;Max_cycle;Signal;HPM_P1;HPM_P2
2022/11/01 00:00:21;;;;;;;36.10;18.67;;;;;;;;;;5094088;28;20044;-68
2022/11/01 00:02:47;;;;;;;33.40;20.50;;;;;;;;;;5094796;28;20044;-67
2022/11/01 00:05:13;;;;;;;32.70;19.38;;;;;;;;;;5092798;28;20048;-67
2022/11/01 00:07:39;;;;;;;34.83;19.70;;;;;;;;;;5092950;28;20074;-71
2022/11/01 00:10:06;;;;;;;35.75;19.08;;;;;;;;;;5093925;28;20044;-68
2022/11/01 00:12:32;;;;;;;;;;;;;;;;;;5094302;28;20104;-67
2022/11/01 00:14:58;;;;;;;34.60;19.92;;;;;;;;;;5093752;28;19920;-68
2022/11/01 00:17:24;;;;;;;33.85;19.35;;;;;;;;;;5092598;28;20040;-67
2022/11/01 00:19:50;;;;;;;31.45;18.20;;;;;;;;;;5093699;28;20044;-67
2022/11/01 00:22:16;;;;;;;33.08;19.30;;;;;;;;;;5093725;28;20075;-67
2022/11/01 00:24:42;;;;;;;36.63;19.42;;;;;;;;;;5093749;28;20044;-69
2022/11/01 00:27:08;;;;;;;32.35;19.08;;;;;;;;;;5093030;28;20439;-68
2022/11/01 00:29:34;;;;;;;33.72;19.45;;;;;;;;;;5093707;28;20495;-68
2022/11/01 00:32:00;;;;;;;31.98;18.52;;;;;;;;;;5093251;28;20040;-68
2022/11/01 00:34:26;;;;;;;28.15;17.35;;;;;;;;;;5092398;28;20484;-68
2022/11/01 00:36:52;;;;;;;33.10;18.77;;;;;;;;;;5093526;28;20553;-68
2022/11/01 00:39:18;;;;;;;30.23;17.95;;;;;;;;;;5093446;28;20050;-68
2022/11/01 00:41:44;;;;;;;;;;;;;;;;;;5093629;28;20056;-70
2022/11/01 00:44:11;;;;;;;28.63;16.88;;;;;;;;;;5094352;28;19989;-68
2022/11/01 00:46:37;;;;;;;27.63;16.48;;;;;;;;;;5096545;28;20044;-68
2022/11/01 00:49:03;;;;;;;33.58;17.88;;;;;;;;;;5080217;28;20435;-68
2022/11/01 00:51:29;;;;;;;31.38;17.63;;;;;;;;;;5096692;28;20108;-68
2022/11/01 00:53:55;;;;;;;27.40;16.92;;;;;;;;;;5097442;28;20044;-69
2022/11/01 00:56:21;;;;;;;26.33;16.20;;;;;;;;;;5096458;28;20063;-67
2022/11/01 00:58:47;;;;;;;30.60;15.85;;;;;;;;;;5097968;28;20123;-70
2022/11/01 01:01:13;;;;;;;31.23;17.23;;;;;;;;;;5097489;28;20083;-68
2022/11/01 01:03:39;;;;;;;31.55;16.92;;;;;;;;;;5097363;28;20105;-68
2022/11/01 01:06:05;;;;;;;27.98;16.67;;;;;;;;;;5131285;27;20051;-69
2022/11/01 01:08:31;;;;;;;30.58;17.45;;;;;;;;;;5095319;28;20056;-69
2022/11/01 01:10:57;;;;;;;30.02;16.75;;;;;;;;;;5092211;28;20480;-69
2022/11/01 01:13:23;;;;;;;27.63;16.10;;;;;;;;;;5092235;28;20432;-71
2022/11/01 01:15:49;;;;;;;25.70;15.75;;;;;;;;;;5092292;28;20190;-71
2022/11/01 01:18:16;;;;;;;30.52;16.55;;;;;;;;;;5092134;28;20105;-70
2022/11/01 01:20:42;;;;;;;27.13;14.75;;;;;;;;;;5092073;28;20134;-70
2022/11/01 01:23:08;;;;;;;27.13;14.98;;;;;;;;;;5092156;28;20135;-71
2022/11/01 01:25:34;;;;;;;27.85;15.23;;;;;;;;;;5092008;28;20154;-68
2022/11/01 01:28:00;;;;;;;26.67;14.95;;;;;;;;;;5091996;28;20044;-70
2022/11/01 01:30:26;;;;;;;28.83;15.73;;;;;;;;;;5091478;28;20044;-70
2022/11/01 01:32:52;;;;;;;25.40;14.15;;;;;;;;;;5091521;28;20493;-69
2022/11/01 01:35:18;;;;;;;31.42;15.25;;;;;;;;;;5091897;28;20089;-71
2022/11/01 01:37:44;;;;;;;27.85;14.10;;;;;;;;;;5091515;28;20058;-69
2022/11/01 01:40:10;;;;;;;28.90;14.90;;;;;;;;;;5090147;28;20113;-70
2022/11/01 01:42:38;;;;;;;27.05;14.35;;;;;;;;;;5091335;28;20119;-69
2022/11/01 01:45:04;;;;;;;32.05;14.55;;;;;;;;;;5091550;28;20055;-72
2022/11/01 01:47:37;;;;;;;25.60;14.27;;;;;;;;;;5091618;28;20122;-71
2022/11/01 01:50:03;;;;;;;26.73;14.82;;;;;;;;;;5091131;28;20623;-71
2022/11/01 01:52:31;;;;;;;28.30;15.45;;;;;;;;;;5091719;28;20052;-72
2022/11/01 01:54:58;;;;;;;26.80;14.55;;;;;;;;;;5090949;28;20535;-72
2022/11/01 01:57:24;;;;;;;25.65;13.50;;;;;;;;;;5090829;28;20048;-70
2022/11/01 01:59:51;;;;;;;25.13;14.27;;;;;;;;;;5091626;28;20146;-69
2022/11/01 02:02:17;;;;;;;31.58;14.75;;;;;;;;;;5091671;28;20052;-68
2022/11/01 02:04:43;;;;;;;;;;;;;;;;;;5091805;28;20154;-70
2022/11/01 02:07:09;;;;;;;26.65;13.63;;;;;;;;;;5091178;28;19964;-70
2022/11/01 02:09:36;;;;;;;25.58;13.00;;;;;;;;;;5091220;28;20390;-70
2022/11/01 02:12:03;;;;;;;23.92;13.38;;;;;;;;;;5091089;28;20044;-69
2022/11/01 02:14:29;;;;;;;24.05;12.95;;;;;;;;;;5091146;28;20180;-69
2022/11/01 02:17:05;;;;;;;28.40;14.00;;;;;;;;;;5090678;28;20047;-70
2022/11/01 02:19:44;;;;;;;28.23;14.32;;;;;;;;;;5089436;28;20044;-70
2022/11/01 02:22:17;;;;;;;28.95;13.25;;;;;;;;;;5090965;28;20095;-70
2022/11/01 02:24:43;;;;;;;25.02;12.90;;;;;;;;;;5090959;28;20112;-70
2022/11/01 02:27:15;;;;;;;23.10;13.00;;;;;;;;;;5090518;28;20044;-70
2022/11/01 02:29:45;;;;;;;21.55;11.88;;;;;;;;;;5090584;28;20056;-71
2022/11/01 02:32:20;;;;;;;24.60;12.70;;;;;;;;;;5090744;28;20064;-70
2022/11/01 02:34:49;;;;;;;23.52;12.63;;;;;;;;;;5090770;28;20135;-70
2022/11/01 02:37:20;;;;;;;25.13;12.52;;;;;;;;;;5090587;28;20047;-71
2022/11/01 02:39:48;;;;;;;23.83;13.23;;;;;;;;;;5090871;28;20144;-70
2022/11/01 02:42:16;;;;;;;25.50;12.40;;;;;;;;;;5090063;28;20059;-70
2022/11/01 02:44:44;;;;;;;26.58;12.48;;;;;;;;;;5090530;28;20048;-69
2022/11/01 02:47:12;;;;;;;25.48;12.30;;;;;;;;;;5090568;28;20048;-70
2022/11/01 02:49:43;;;;;;;25.17;13.07;;;;;;;;;;5090446;28;20447;-68
2022/11/01 02:52:11;;;;;;;27.98;12.68;;;;;;;;;;5090999;28;20055;-70
2022/11/01 02:54:39;;;;;;;24.08;12.55;;;;;;;;;;5090751;28;20345;-69
2022/11/01 02:57:07;;;;;;;23.23;12.55;;;;;;;;;;5091102;28;20075;-70
2022/11/01 02:59:44;;;;;;;22.58;11.77;;;;;;;;;;5090379;28;20083;-70
2022/11/01 03:02:10;;;;;;;;;;;;;;;;;;5090574;28;20071;-69
2022/11/01 03:04:36;;;;;;;22.52;12.23;;;;;;;;;;5090267;28;20448;-68
2022/11/01 03:07:05;;;;;;;25.42;12.90;;;;;;;;;;5090100;28;20355;-70
2022/11/01 03:09:31;;;;;;;23.35;12.10;;;;;;;;;;5089113;28;20060;-69
2022/11/01 03:12:02;;;;;;;25.13;11.85;;;;;;;;;;5090385;28;20186;-67
2022/11/01 03:14:49;;;;;;;26.40;11.98;;;;;;;;;;5089948;28;20048;-68
2022/11/01 03:17:15;;;;;;;23.55;11.75;;;;;;;;;;5090180;28;20063;-70
2022/11/01 03:19:41;;;;;;;23.23;11.82;;;;;;;;;;5089739;28;20048;-70
2022/11/01 03:22:13;;;;;;;24.52;11.45;;;;;;;;;;5088554;28;20097;-71
2022/11/01 03:24:46;;;;;;;26.13;11.90;;;;;;;;;;5089692;28;20505;-70
2022/11/01 03:27:33;;;;;;;27.95;12.00;;;;;;;;;;5089256;28;20530;-71
2022/11/01 03:30:05;;;;;;;27.42;11.35;;;;;;;;;;5089510;28;20102;-70
2022/11/01 03:32:35;;;;;;;23.42;11.77;;;;;;;;;;5089382;28;20059;-70
2022/11/01 03:35:02;;;;;;;25.02;11.88;;;;;;;;;;5090005;28;20040;-72
2022/11/01 03:37:30;;;;;;;23.67;10.57;;;;;;;;;;5089728;28;20468;-73
2022/11/01 03:39:57;;;;;;;22.63;11.18;;;;;;;;;;5090155;28;20047;-70
2022/11/01 03:42:24;;;;;;;26.25;11.43;;;;;;;;;;5090095;28;20447;-70
2022/11/01 03:44:50;;;;;;;;;;;;;;;;;;5090780;28;20056;-69
2022/11/01 03:47:16;;;;;;;21.00;10.38;;;;;;;;;;5090130;28;20026;-72
2022/11/01 03:49:42;;;;;;;21.67;10.60;;;;;;;;;;5090751;28;20523;-70
2022/11/01 03:52:08;;;;;;;21.13;10.88;;;;;;;;;;5091620;28;20043;-71
2022/11/01 03:54:34;;;;;;;19.98;10.20;;;;;;;;;;5090687;28;20096;-68
2022/11/01 03:57:00;;;;;;;21.00;10.43;;;;;;;;;;5090278;28;20480;-67
2022/11/01 03:59:26;;;;;;;23.40;10.48;;;;;;;;;;5090169;28;20040;-67
2022/11/01 04:01:53;;;;;;;20.02;9.68;;;;;;;;;;5089791;28;20349;-70
2022/11/01 04:04:19;;;;;;;23.17;9.77;;;;;;;;;;5090092;28;20055;-67
2022/11/01 04:06:45;;;;;;;23.00;10.38;;;;;;;;;;5090074;28;20040;-61
2022/11/01 04:09:11;;;;;;;18.65;9.60;;;;;;;;;;5089924;28;20040;-63
2022/11/01 04:11:37;;;;;;;21.38;10.07;;;;;;;;;;5088289;28;20055;-64
2022/11/01 04:22:17;;;;;;;19.48;9.00;;;;;;;;;;5089532;28;20094;-71
2022/11/01 04:24:43;;;;;;;20.77;9.77;;;;;;;;;;5089174;28;20433;-70
2022/11/01 04:27:09;;;;;;;20.25;9.60;;;;;;;;;;5090001;28;20064;-74
2022/11/01 04:29:35;;;;;;;20.15;9.20;;;;;;;;;;5089608;28;20048;-68
2022/11/01 04:32:02;;;;;;;20.55;9.38;;;;;;;;;;5089295;28;20044;-71
2022/11/01 04:34:43;;;;;;;23.40;9.30;;;;;;;;;;5088115;28;20527;-66
2022/11/01 04:37:09;;;;;;;20.08;8.95;;;;;;;;;;5089911;28;20135;-68
2022/11/01 04:39:35;;;;;;;16.98;8.63;;;;;;;;;;5089366;28;20401;-66
2022/11/01 04:42:01;;;;;;;21.55;8.73;;;;;;;;;;5089244;28;20390;-71
2022/11/01 04:44:28;;;;;;;23.45;8.75;;;;;;;;;;5089733;28;20047;-74
2022/11/01 04:46:54;;;;;;;19.05;8.35;;;;;;;;;;5089043;28;20513;-66
2022/11/01 04:49:20;;;;;;;22.17;8.75;;;;;;;;;;5089365;28;20345;-64
2022/11/01 04:51:46;;;;;;;17.67;8.57;;;;;;;;;;5089188;28;20133;-71
2022/11/01 04:54:12;;;;;;;21.55;9.00;;;;;;;;;;5089302;28;20052;-70
2022/11/01 04:56:38;;;;;;;20.38;9.48;;;;;;;;;;5089167;28;20044;-76
2022/11/01 04:59:04;;;;;;;19.13;8.40;;;;;;;;;;5087491;28;20463;-70
2022/11/01 05:01:30;;;;;;;17.75;8.85;;;;;;;;;;5089501;28;20067;-69
2022/11/01 05:03:56;;;;;;;20.70;8.02;;;;;;;;;;5087710;28;20048;-71
2022/11/01 05:06:22;;;;;;;21.02;8.73;;;;;;;;;;5089186;28;20044;-68
2022/11/01 05:08:48;;;;;;;19.08;8.25;;;;;;;;;;5088995;28;20044;-71
2022/11/01 05:11:14;;;;;;;27.08;9.32;;;;;;;;;;5088947;28;20148;-70
2022/11/01 05:13:40;;;;;;;20.08;8.43;;;;;;;;;;5088925;28;20071;-66
2022/11/01 05:16:06;;;;;;;17.30;8.02;;;;;;;;;;5088512;28;20390;-64
2022/11/01 05:18:32;;;;;;;21.80;8.25;;;;;;;;;;5088882;28;20040;-65
2022/11/01 05:20:58;;;;;;;21.42;8.48;;;;;;;;;;5088733;28;20120;-67
2022/11/01 05:23:24;;;;;;;16.45;7.88;;;;;;;;;;5088605;28;20052;-67
2022/11/01 05:25:50;;;;;;;19.25;8.15;;;;;;;;;;5088706;28;20073;-67
2022/11/01 05:28:16;;;;;;;16.27;7.40;;;;;;;;;;5088948;28;20122;-69
2022/11/01 05:30:42;;;;;;;19.13;7.35;;;;;;;;;;5088636;28;20048;-66
2022/11/01 05:33:09;;;;;;;17.40;8.10;;;;;;;;;;5092180;28;20111;-66
2022/11/01 05:35:36;;;;;;;18.17;7.68;;;;;;;;;;5093118;28;20135;-77
2022/11/01 05:38:03;;;;;;;18.92;7.47;;;;;;;;;;5092507;28;20471;-67
2022/11/01 05:40:29;;;;;;;19.48;6.70;;;;;;;;;;5092445;28;20058;-66
2022/11/01 05:42:55;;;;;;;17.60;7.00;;;;;;;;;;5092257;28;20068;-71
2022/11/01 05:45:21;;;;;;;14.95;6.95;;;;;;;;;;5074382;28;20052;-68
2022/11/01 05:47:47;;;;;;;14.75;6.43;;;;;;;;;;5092227;28;20067;-62
2022/11/01 05:50:14;;;;;;;14.90;6.35;;;;;;;;;;5092248;28;20052;-69
2022/11/01 05:52:40;;;;;;;14.52;5.65;;;;;;;;;;5092033;28;20105;-63
2022/11/01 05:55:07;;;;;;;13.35;5.32;;;;;;;;;;5092261;28;20040;-79
2022/11/01 05:57:34;;;;;;;11.98;4.80;;;;;;;;;;5092009;28;20463;-66
2022/11/01 06:00:00;;;;;;;13.43;4.18;;;;;;;;;;5092006;28;20067;-63
2022/11/01 06:02:26;;;;;;;13.43;4.50;;;;;;;;;;5092351;28;20104;-61
2022/11/01 06:04:52;;;;;;;13.63;3.75;;;;;;;;;;5092242;28;20139;-65
2022/11/01 06:07:18;;;;;;;10.73;3.35;;;;;;;;;;5090379;28;20109;-61
2022/11/01 06:09:44;;;;;;;10.95;2.85;;;;;;;;;;5092240;28;20055;-63
2022/11/01 06:12:10;;;;;;;;;;;;;;;;;;5092502;28;20052;-63
2022/11/01 06:14:36;;;;;;;11.05;3.20;;;;;;;;;;5091731;28;19927;-63
2022/11/01 06:17:02;;;;;;;12.23;3.05;;;;;;;;;;5091685;28;20066;-63
2022/11/01 06:19:28;;;;;;;11.57;2.90;;;;;;;;;;5091901;28;20043;-62
2022/11/01 06:21:55;;;;;;;13.20;2.85;;;;;;;;;;5090350;28;20071;-64
2022/11/01 06:24:21;;;;;;;9.48;2.60;;;;;;;;;;5091693;28;20113;-61
2022/11/01 06:26:47;;;;;;;10.85;2.85;;;;;;;;;;5091634;28;20074;-70
2022/11/01 06:29:13;;;;;;;8.23;2.42;;;;;;;;;;5091220;28;20119;-65
2022/11/01 06:31:39;;;;;;;12.80;2.38;;;;;;;;;;5090583;28;20452;-69
2022/11/01 06:34:05;;;;;;;10.73;2.50;;;;;;;;;;5090959;28;20083;-65
2022/11/01 06:36:31;;;;;;;12.15;2.67;;;;;;;;;;5091055;28;20050;-70
2022/11/01 06:38:57;;;;;;;14.13;2.95;;;;;;;;;;5090892;28;20156;-65
2022/11/01 06:41:23;;;;;;;12.05;2.45;;;;;;;;;;5090723;28;20211;-64
2022/11/01 06:43:49;;;;;;;9.45;2.45;;;;;;;;;;5090216;28;20246;-74
2022/11/01 06:46:15;;;;;;;12.15;2.45;;;;;;;;;;5090703;28;20222;-63
2022/11/01 06:48:41;;;;;;;10.30;3.63;;;;;;;;;;5091160;28;20075;-68
2022/11/01 06:51:07;;;;;;;;;;;;;;;;;;5091125;28;20048;-65
2022/11/01 06:53:33;;;;;;;19.52;3.00;;;;;;;;;;5089814;28;20362;-62
2022/11/01 06:55:59;;;;;;;9.93;2.42;;;;;;;;;;5090957;28;20052;-63
2022/11/01 06:58:26;;;;;;;11.10;2.58;;;;;;;;;;5089433;28;20054;-65
2022/11/01 07:00:52;;;;;;;;;;;;;;;;;;5091817;28;20052;-63
2022/11/01 07:03:18;;;;;;;10.65;2.63;;;;;;;;;;5091607;28;19992;-65
2022/11/01 07:05:44;;;;;;;11.75;2.70;;;;;;;;;;5091792;28;20078;-71
2022/11/01 07:08:11;;;;;;;13.90;3.47;;;;;;;;;;5091112;28;20051;-66
2022/11/01 07:10:38;;;;;;;18.92;3.45;;;;;;;;;;5091035;28;20127;-70
2022/11/01 07:13:05;;;;;;;12.75;2.95;;;;;;;;;;5090982;28;20087;-69
2022/11/01 07:15:31;;;;;;;14.50;3.28;;;;;;;;;;5090900;28;20039;-71
2022/11/01 07:17:58;;;;;;;12.88;3.17;;;;;;;;;;5089402;28;20044;-68
2022/11/01 07:20:25;;;;;;;17.52;3.78;;;;;;;;;;5090528;28;20128;-66
2022/11/01 07:22:59;;;;;;;13.10;3.38;;;;;;;;;;5090627;28;20337;-69
2022/11/01 07:25:25;;;;;;;14.55;3.95;;;;;;;;;;5090450;28;20134;-68
2022/11/01 07:27:51;;;;;;;;;;;;;;;;;;5090711;28;20075;-63
2022/11/01 07:30:17;;;;;;;14.30;3.50;;;;;;;;;;5090527;28;20370;-70
2022/11/01 07:32:43;;;;;;;26.88;3.78;;;;;;;;;;5088704;28;20177;-60
2022/11/01 07:35:09;;;;;;;15.77;2.83;;;;;;;;;;5090399;28;20083;-68
2022/11/01 07:37:36;;;;;;;14.30;3.03;;;;;;;;;;5090224;28;20048;-74
2022/11/01 07:40:02;;;;;;;;;;;;;;;;;;5090868;28;20139;-70
2022/11/01 07:42:29;;;;;;;15.80;3.47;;;;;;;;;;5089443;28;19930;-69
2022/11/01 07:44:55;;;;;;;18.60;3.75;;;;;;;;;;5089572;28;20052;-69
2022/11/01 07:47:21;;;;;;;12.65;3.38;;;;;;;;;;5088426;28;20378;-68
2022/11/01 07:49:49;;;;;;;17.65;3.40;;;;;;;;;;5089223;28;20429;-67
2022/11/01 07:52:15;;;;;;;18.77;3.88;;;;;;;;;;5089004;28;20499;-63
2022/11/01 07:54:41;;;;;;;;;;;;;;;;;;5089506;28;20087;-70
2022/11/01 07:57:08;;;;;;;19.48;4.00;;;;;;;;;;5088999;28;19920;-71
2022/11/01 07:59:34;;;;;;;17.20;3.15;;;;;;;;;;5089395;28;20059;-66
2022/11/01 08:02:00;;;;;;;;;;;;;;;;;;5089841;28;20066;-74
2022/11/01 08:04:26;;;;;;;15.25;3.20;;;;;;;;;;5089514;28;20430;-63
2022/11/01 08:06:52;;;;;;;22.33;3.55;;;;;;;;;;5089422;28;20055;-63
2022/11/01 08:09:20;;;;;;;19.20;4.13;;;;;;;;;;5089675;28;20059;-68
2022/11/01 08:11:46;;;;;;;16.77;3.28;;;;;;;;;;5089367;28;20463;-69
2022/11/01 08:14:13;;;;;;;17.13;3.63;;;;;;;;;;5089539;28;20059;-66
2022/11/01 08:16:39;;;;;;;21.63;5.03;;;;;;;;;;5088658;28;20050;-63
2022/11/01 08:19:05;;;;;;;16.77;3.80;;;;;;;;;;5088467;28;20101;-64
2022/11/01 08:21:31;;;;;;;19.27;3.67;;;;;;;;;;5088939;28;20054;-65
2022/11/01 08:23:57;;;;;;;22.23;6.72;;;;;;;;;;5089055;28;20131;-68
2022/11/01 08:26:23;;;;;;;19.13;4.03;;;;;;;;;;5089362;28;20044;-66
2022/11/01 08:28:49;;;;;;;19.52;4.10;;;;;;;;;;5088918;28;20044;-65
2022/11/01 08:31:16;;;;;;;23.73;4.50;;;;;;;;;;5088418;28;20079;-62
2022/11/01 08:33:42;;;;;;;;;;;;;;;;;;5086990;28;20054;-67
2022/11/01 08:36:08;;;;;;;18.45;3.72;;;;;;;;;;5087926;28;19919;-63
2022/11/01 08:38:34;;;;;;;25.30;5.03;;;;;;;;;;5088103;28;20156;-64
2022/11/01 08:41:00;;;;;;;21.38;3.72;;;;;;;;;;5086944;28;20047;-66
2022/11/01 08:43:26;;;;;;;22.08;4.13;;;;;;;;;;5086384;28;20101;-65
2022/11/01 08:45:52;;;;;;;18.92;3.92;;;;;;;;;;5089029;28;20071;-65
2022/11/01 08:48:18;;;;;;;24.60;4.88;;;;;;;;;;5088447;28;20124;-65
2022/11/01 08:50:44;;;;;;;22.98;4.72;;;;;;;;;;5088702;28;20063;-66
2022/11/01 08:53:11;;;;;;;19.88;4.38;;;;;;;;;;5088399;28;20384;-65
2022/11/01 08:55:38;;;;;;;19.80;4.70;;;;;;;;;;5088484;28;20040;-60
2022/11/01 08:58:04;;;;;;;;;;;;;;;;;;5087370;28;20044;-66
2022/11/01 09:00:30;;;;;;;22.10;4.72;;;;;;;;;;5088847;28;20324;-64
2022/11/01 09:02:56;;;;;;;22.17;5.20;;;;;;;;;;5088523;28;20040;-63
2022/11/01 09:05:22;;;;;;;27.50;5.60;;;;;;;;;;5088793;28;20107;-67
2022/11/01 09:07:48;;;;;;;;;;;;;;;;;;5092213;28;20079;-61
2022/11/01 09:10:15;;;;;;;21.23;4.80;;;;;;;;;;5092932;28;19959;-66
2022/11/01 09:12:41;;;;;;;25.15;5.05;;;;;;;;;;5093186;28;20054;-64
2022/11/01 09:15:08;;;;;;;21.45;4.85;;;;;;;;;;5092672;28;20048;-61
2022/11/01 09:17:34;;;;;;;26.58;6.70;;;;;;;;;;5093133;28;20132;-65
2022/11/01 09:20:00;;;;;;;;;;;;;;;;;;5092970;28;20080;-60
2022/11/01 09:22:27;;;;;;;26.95;5.18;;;;;;;;;;5092046;28;19927;-67
2022/11/01 09:24:55;;;;;;;22.05;4.88;;;;;;;;;;5091882;28;20074;-61
2022/11/01 09:27:21;;;;;;;25.77;5.10;;;;;;;;;;5090578;28;20078;-64
2022/11/01 09:29:48;;;;;;;25.90;4.97;;;;;;;;;;5092090;28;20040;-63
2022/11/01 09:32:14;;;;;;;;;;;;;;;;;;5091781;28;20055;-64
2022/11/01 09:34:40;;;;;;;26.80;4.95;;;;;;;;;;5091838;28;20323;-63
2022/11/01 09:37:06;;;;;;;26.67;5.00;;;;;;;;;;5073090;28;20064;-65
2022/11/01 09:39:32;;;;;;;23.23;4.80;;;;;;;;;;5090987;28;20040;-65
2022/11/01 09:42:03;;;;;;;33.75;5.28;;;;;;;;;;5089737;28;20087;-65
2022/11/01 09:44:30;;;;;;;23.38;5.25;;;;;;;;;;5089875;28;20112;-65
2022/11/01 09:46:59;;;;;;;26.58;5.05;;;;;;;;;;5091160;28;20428;-61
2022/11/01 09:49:28;;;;;;;26.00;5.88;;;;;;;;;;5091219;28;20043;-63
2022/11/01 09:51:55;;;;;;;25.10;5.15;;;;;;;;;;5091436;28;20040;-63
2022/11/01 09:54:22;;;;;;;21.63;4.60;;;;;;;;;;5091379;28;20105;-61
2022/11/01 09:57:05;;;;;;;24.33;4.68;;;;;;;;;;5091378;28;20261;-61
2022/11/01 09:59:31;;;;;;;23.30;4.60;;;;;;;;;;5091104;28;20445;-62
2022/11/01 10:02:14;;;;;;;26.42;5.20;;;;;;;;;;5091091;28;20230;-60
2022/11/01 10:04:40;;;;;;;24.35;4.78;;;;;;;;;;5091240;28;20048;-62
2022/11/01 10:07:12;;;;;;;26.30;5.18;;;;;;;;;;5090984;28;20055;-64
2022/11/01 10:09:38;;;;;;;32.10;6.88;;;;;;;;;;5091045;28;20401;-62
2022/11/01 10:12:07;;;;;;;27.00;4.55;;;;;;;;;;5090706;28;20403;-64
2022/11/01 10:14:33;;;;;;;24.77;4.93;;;;;;;;;;5090726;28;20418;-63
2022/11/01 10:17:02;;;;;;;22.98;5.32;;;;;;;;;;5090348;28;20141;-63
2022/11/01 10:19:32;;;;;;;23.45;5.05;;;;;;;;;;5090366;28;20073;-63
2022/11/01 10:22:00;;;;;;;26.05;4.78;;;;;;;;;;5091036;28;20139;-64
2022/11/01 10:24:42;;;;;;;22.20;4.78;;;;;;;;;;5090323;28;20344;-63
2022/11/01 10:27:17;;;;;;;28.17;5.32;;;;;;;;;;5090927;28;20055;-62
2022/11/01 10:29:49;;;;;;;28.17;5.85;;;;;;;;;;5090036;28;20060;-62
2022/11/01 10:32:31;;;;;;;26.95;4.97;;;;;;;;;;5090679;28;20048;-65
2022/11/01 10:35:00;;;;;;;23.65;5.00;;;;;;;;;;5090385;28;20085;-64
2022/11/01 10:37:48;;;;;;;25.45;5.03;;;;;;;;;;5090487;28;20059;-63
2022/11/01 10:40:23;;;;;;;66.15;8.93;;;;;;;;;;5089834;28;20043;-63
2022/11/01 10:42:49;;;;;;;27.13;5.03;;;;;;;;;;5090358;28;20128;-63
2022/11/01 10:45:17;;;;;;;35.13;5.13;;;;;;;;;;5090432;28;20044;-64
2022/11/01 10:47:44;;;;;;;30.88;5.65;;;;;;;;;;5090737;28;20107;-61
2022/11/01 10:50:17;;;;;;;23.30;4.80;;;;;;;;;;5090398;28;20402;-63
2022/11/01 10:52:51;;;;;;;24.60;4.93;;;;;;;;;;5089985;28;20147;-65
2022/11/01 10:55:20;;;;;;;19.48;4.50;;;;;;;;;;5090088;28;20054;-65
2022/11/01 10:57:52;;;;;;;28.10;5.30;;;;;;;;;;5090294;28;20318;-64
2022/11/01 11:00:19;;;;;;;25.05;4.28;;;;;;;;;;5090288;28;20150;-64
2022/11/01 11:02:48;;;;;;;27.30;4.80;;;;;;;;;;5089832;28;20200;-64
2022/11/01 11:05:15;;;;;;;25.30;4.68;;;;;;;;;;5088271;28;20136;-65
2022/11/01 11:07:41;;;;;;;20.00;4.82;;;;;;;;;;5089928;28;20108;-62
2022/11/01 11:10:07;;;;;;;;;;;;;;;;;;5091113;28;20043;-68
2022/11/01 11:12:33;;;;;;;36.60;6.50;;;;;;;;;;5089604;28;19965;-63
2022/11/01 11:14:59;;;;;;;;;;;;;;;;;;5089999;28;20396;-63
2022/11/01 11:17:28;;;;;;;25.63;5.13;;;;;;;;;;5089413;28;19933;-66
2022/11/01 11:19:54;;;;;;;37.67;5.65;;;;;;;;;;5089788;28;20080;-63
2022/11/01 11:22:20;;;;;;;24.05;5.07;;;;;;;;;;5087875;28;20044;-65
2022/11/01 11:24:47;;;;;;;24.65;4.53;;;;;;;;;;5090061;28;20140;-64
2022/11/01 11:27:15;;;;;;;24.00;4.63;;;;;;;;;;5090084;28;20485;-67
2022/11/01 11:29:47;;;;;;;22.10;5.00;;;;;;;;;;5089601;28;20040;-64
2022/11/01 11:32:20;;;;;;;33.13;4.90;;;;;;;;;;5090152;28;20102;-67
2022/11/01 11:34:59;;;;;;;21.77;4.90;;;;;;;;;;5088915;28;20071;-62
2022/11/01 11:37:27;;;;;;;31.33;7.18;;;;;;;;;;5089362;28;20065;-66
2022/11/01 11:40:18;;;;;;;31.08;7.68;;;;;;;;;;5089401;28;20429;-69
2022/11/01 11:42:44;;;;;;;22.45;4.88;;;;;;;;;;5082123;28;20055;-65
2022/11/01 11:45:10;;;;;;;25.35;5.50;;;;;;;;;;5090113;28;20087;-64
2022/11/01 11:47:37;;;;;;;26.23;4.97;;;;;;;;;;5087404;28;20162;-65
2022/11/01 11:50:15;;;;;;;26.48;5.63;;;;;;;;;;5089557;28;20376;-64
2022/11/01 11:52:42;;;;;;;27.77;5.28;;;;;;;;;;5089108;28;20437;-66
2022/11/01 11:55:34;;;;;;;40.28;5.07;;;;;;;;;;5087571;28;20052;-64
2022/11/01 11:58:01;;;;;;;24.27;5.85;;;;;;;;;;5086584;28;20056;-66
2022/11/01 12:00:28;;;;;;;26.05;5.00;;;;;;;;;;5089380;28;20123;-67
2022/11/01 12:02:54;;;;;;;19.90;4.57;;;;;;;;;;5090209;28;20064;-66
2022/11/01 12:05:22;;;;;;;18.48;4.47;;;;;;;;;;5089090;28;20074;-67
2022/11/01 12:07:50;;;;;;;21.35;4.55;;;;;;;;;;5088883;28;20052;-63
2022/11/01 12:10:36;;;;;;;22.23;4.80;;;;;;;;;;5088528;28;20451;-65
2022/11/01 12:13:22;;;;;;;24.88;4.85;;;;;;;;;;5088605;28;20498;-64
2022/11/01 12:15:48;;;;;;;20.52;4.70;;;;;;;;;;5088505;28;20099;-66
2022/11/01 12:18:15;;;;;;;20.70;4.53;;;;;;;;;;5088897;28;20170;-65
2022/11/01 12:20:41;;;;;;;25.38;5.28;;;;;;;;;;5088314;28;20085;-61
2022/11/01 12:23:10;;;;;;;21.52;4.22;;;;;;;;;;5087914;28;20051;-62
2022/11/01 12:25:38;;;;;;;22.42;4.45;;;;;;;;;;5088535;28;20058;-62
2022/11/01 12:28:11;;;;;;;22.23;5.00;;;;;;;;;;5088571;28;20047;-61
2022/11/01 12:30:37;;;;;;;23.85;4.28;;;;;;;;;;5088553;28;20120;-62
2022/11/01 12:33:03;;;;;;;;;;;;;;;;;;5089712;28;20047;-64
2022/11/01 12:35:36;;;;;;;20.20;4.50;;;;;;;;;;5089389;28;19927;-62
2022/11/01 12:38:09;;;;;;;23.55;4.65;;;;;;;;;;5088139;28;20467;-68
2022/11/01 12:40:40;;;;;;;24.70;4.55;;;;;;;;;;5091255;28;20047;-66
2022/11/01 12:43:15;;;;;;;21.27;4.65;;;;;;;;;;5096101;28;20134;-62
2022/11/01 12:45:48;;;;;;;21.35;3.72;;;;;;;;;;5095024;28;20125;-62
2022/11/01 12:48:23;;;;;;;19.15;3.75;;;;;;;;;;5095614;28;20372;-65
2022/11/01 12:50:51;;;;;;;17.95;3.70;;;;;;;;;;5095295;28;20128;-61
2022/11/01 12:53:20;;;;;;;19.17;3.90;;;;;;;;;;5095897;28;20083;-63
2022/11/01 12:55:46;;;;;;;18.75;4.15;;;;;;;;;;5095323;28;20048;-61
2022/11/01 12:58:13;;;;;;;25.08;4.38;;;;;;;;;;5095321;28;20385;-61
2022/11/01 13:00:48;;;;;;;16.35;4.35;;;;;;;;;;5095388;28;20460;-67
2022/11/01 13:03:20;;;;;;;26.80;4.32;;;;;;;;;;5095137;28;20067;-64
2022/11/01 13:05:51;;;;;;;21.67;4.32;;;;;;;;;;5094955;28;20133;-66
2022/11/01 13:08:42;;;;;;;20.13;4.20;;;;;;;;;;5095116;28;20043;-65
2022/11/01 13:11:14;;;;;;;18.42;3.45;;;;;;;;;;5095085;28;20115;-84
2022/11/01 13:13:44;;;;;;;18.40;3.72;;;;;;;;;;5095194;28;20134;-64
2022/11/01 13:16:10;;;;;;;30.27;4.95;;;;;;;;;;5095010;28;20067;-65
2022/11/01 13:18:36;;;;;;;20.65;3.78;;;;;;;;;;5094563;28;20479;-65
2022/11/01 13:21:11;;;;;;;18.95;4.22;;;;;;;;;;5095252;28;20048;-64
2022/11/01 13:23:38;;;;;;;22.77;4.35;;;;;;;;;;5095203;28;20103;-62
2022/11/01 13:26:17;;;;;;;20.63;4.72;;;;;;;;;;5095035;28;20411;-63
2022/11/01 13:28:46;;;;;;;15.55;3.63;;;;;;;;;;5095087;28;20138;-67
2022/11/01 13:31:31;;;;;;;19.73;3.67;;;;;;;;;;5094695;28;20112;-65
2022/11/01 13:34:01;;;;;;;19.50;3.92;;;;;;;;;;5094529;28;20051;-63
2022/11/01 13:36:49;;;;;;;22.30;3.78;;;;;;;;;;5094852;28;20178;-66
2022/11/01 13:39:15;;;;;;;;;;;;;;;;;;5094591;28;20476;-65
2022/11/01 13:41:48;;;;;;;17.02;3.47;;;;;;;;;;5094296;28;19927;-65
2022/11/01 13:44:16;;;;;;;21.25;4.18;;;;;;;;;;5093299;28;20064;-70
2022/11/01 13:46:56;;;;;;;18.92;3.78;;;;;;;;;;5094229;28;20055;-65
2022/11/01 13:49:22;;;;;;;25.40;3.90;;;;;;;;;;5092679;28;20076;-64
2022/11/01 13:51:48;;;;;;;;;;;;;;;;;;5094062;28;20173;-62
2022/11/01 13:54:24;;;;;;;21.40;3.75;;;;;;;;;;5091070;28;20320;-64
2022/11/01 13:56:57;;;;;;;19.67;4.03;;;;;;;;;;5089770;28;20132;-64
2022/11/01 13:59:31;;;;;;;19.15;3.70;;;;;;;;;;5091239;28;20080;-65
2022/11/01 14:02:17;;;;;;;17.63;3.33;;;;;;;;;;5091308;28;20040;-65
2022/11/01 14:04:54;;;;;;;17.52;3.50;;;;;;;;;;5090821;28;20083;-67
2022/11/01 14:07:22;;;;;;;18.17;4.20;;;;;;;;;;5090747;28;20098;-69
2022/11/01 14:09:55;;;;;;;18.10;3.53;;;;;;;;;;5090625;28;20461;-67
2022/11/01 14:12:38;;;;;;;21.73;3.55;;;;;;;;;;5090944;28;20044;-62
2022/11/01 14:15:19;;;;;;;19.17;3.55;;;;;;;;;;5090366;28;20113;-65
2022/11/01 14:17:45;;;;;;;17.27;3.92;;;;;;;;;;5090308;28;20092;-65
2022/11/01 14:20:13;;;;;;;18.15;3.30;;;;;;;;;;5090508;28;20044;-64
2022/11/01 14:22:42;;;;;;;15.80;3.63;;;;;;;;;;5090857;28;20146;-66
2022/11/01 14:25:11;;;;;;;13.57;3.20;;;;;;;;;;5090657;28;20111;-68
2022/11/01 14:27:44;;;;;;;16.23;3.50;;;;;;;;;;5090799;28;20318;-62
2022/11/01 14:30:24;;;;;;;23.17;3.45;;;;;;;;;;5090405;28;20151;-69
2022/11/01 14:32:57;;;;;;;15.98;3.20;;;;;;;;;;5090673;28;20106;-70
2022/11/01 14:35:26;;;;;;;13.10;3.40;;;;;;;;;;5089305;28;20100;-66
2022/11/01 14:37:53;;;;;;;18.50;3.28;;;;;;;;;;5090688;28;20126;-63
2022/11/01 14:40:30;;;;;;;17.17;4.00;;;;;;;;;;5090519;28;20135;-64
2022/11/01 14:43:00;;;;;;;24.38;4.00;;;;;;;;;;5090315;28;20468;-63
2022/11/01 14:45:35;;;;;;;21.95;4.38;;;;;;;;;;5090504;28;20070;-63
2022/11/01 14:48:05;;;;;;;24.88;3.83;;;;;;;;;;5090184;28;20048;-67